HEPSHEMA

Guest
Details From HEPS - PORT SAID
To HEMA - MARSA ALAM INTL
Flight Number -
Tags generated
Created
Modified
Stats Distance 399 nm / 739 km
Max Altitude 35,000 ft / 10,668 m
Waypoints 6
Social Downloads 1
Likes 0
Share VATSIM

Download

Looking for another format? Having issues loading an existing format? Contact us
Advertisement - Login to hide

Notes

Basic altitude profile: - Ascent Rate: 2500ft/min - Ascent Speed: 250kts - Cruise Altitude: 35000ft - Cruise Speed: 420kts - Descent Rate: 1500ft/min - Descent Speed: 250kts Options: - Use NATs: yes - Use PACOTS: yes - Use low airways: no - Use high airways: yes

Route

HEPS SISIK V603 HGD HEMA

ID Type Via Altitude Latitude Longitude Leg Dist Tot Dist Heading (true) Name
O HEPS APT - 0 ft / 0 m 31.27939˚ 32.24006˚ - 0 nm - PORT SAID
SISIK FIX - 35,000 ft / 10,668 m 29.60000˚ 32.68500˚ 103 nm 103 nm 167° / 167° -
CAT NDB V603 (AWY-HI) 35,000 ft / 10,668 m 28.68436˚ 34.05994˚ 90 nm 194 nm 127° / 128° ST CATHERINE NDB
GIDID FIX V603 (AWY-HI) 34,000 ft / 10,363 m 28.21667˚ 33.63500˚ 35 nm 230 nm 219° / 219° -
HGD VOR V603 (AWY-HI) 21,700 ft / 6,614 m 27.17776˚ 33.79639˚ 62 nm 293 nm 172° / 172° HURGHADA VOR-DME
O HEMA APT - 0 ft / 0 m 25.55711˚ 34.58371˚ 106 nm 399 nm 156° / 157° MARSA ALAM INTL

Altitude Profile

Advertisement - Login to hide

Weather


0- 5 10 15 20 25 30 35+ Temperature / ° C

Clouds and Precipitation
Forecast for 2017-12-16 00:00 UTC. Updated an hour ago

Ground ~20,000 ft ~40,000 ft Winds

HEPS

Details ICAO HEPS (PSD)
Name PORT SAID
Region Egypt
Timezone Africa/Cairo (UTC+2.0)
Stats Elevation 8 ft / 2 m (AMSL)
Location 31.279393° 32.240063°
Runways 1
Magnetic Variation 4.543° E

METAR

HEPS 151900Z 02002KT CAVOK 19/14 Q1022 NOSIG

Decode

TAF

TAF HEPS 151700Z 1518/1624 35008KT 9999 SCT025 TEMPO 1600/1606 VRB03KT 3000BR NSC

Decode

Departure Runways

ID Width Length Bearing (true) Bearing (mag) Surface Threshold Offset Overrun Length
10 148 ft / 45 m 7,697 ft / 2,346 m 105.87° 101.33° Asphalt 0 ft / 0 m 200 ft / 61 m
28 148 ft / 45 m 7,697 ft / 2,346 m 285.88° 281.34° Asphalt 0 ft / 0 m 200 ft / 61 m

HEMA

Details ICAO HEMA (RMF)
Name MARSA ALAM INTL
Region Egypt
Timezone Africa/Cairo (UTC+2.0)
Stats Elevation 251 ft / 77 m (AMSL)
Location 25.557113° 34.583711°
Runways 1
Magnetic Variation 4.075° E

METAR

HEMA 151900Z 30010KT CAVOK 19/10 Q1018 NOSIG

Decode

TAF

TAF HEMA 151700Z 1518/1624 34010G22KT CAVOK

Decode

Destination Runways

ID Width Length Bearing (true) Bearing (mag) Surface Threshold Offset Overrun Length
15 148 ft / 45 m 9,875 ft / 3,010 m 149.89° 145.81° Asphalt 0 ft / 0 m 295 ft / 90 m
33 148 ft / 45 m 9,875 ft / 3,010 m 329.90° 325.82° Asphalt 0 ft / 0 m 295 ft / 90 m